sensor_id;sensor_type;location;lat;lon;timestamp;P1;durP1;ratioP1;P2;durP2;ratioP2
52744;SDS011;38637;49.984;20.426;2023-03-23T00:00:35;19.47;;;8.97;;
52744;SDS011;38637;49.984;20.426;2023-03-23T00:03:01;19.50;;;9.37;;
52744;SDS011;38637;49.984;20.426;2023-03-23T00:05:26;19.73;;;10.50;;
52744;SDS011;38637;49.984;20.426;2023-03-23T00:07:53;13.27;;;6.30;;
52744;SDS011;38637;49.984;20.426;2023-03-23T00:10:20;13.40;;;7.80;;
52744;SDS011;38637;49.984;20.426;2023-03-23T00:12:45;25.43;;;10.03;;
52744;SDS011;38637;49.984;20.426;2023-03-23T00:15:14;35.35;;;11.75;;
52744;SDS011;38637;49.984;20.426;2023-03-23T00:17:42;23.15;;;8.93;;
52744;SDS011;38637;49.984;20.426;2023-03-23T00:20:09;26.65;;;10.15;;
52744;SDS011;38637;49.984;20.426;2023-03-23T00:22:36;22.58;;;9.60;;
52744;SDS011;38637;49.984;20.426;2023-03-23T00:25:04;31.00;;;10.68;;
52744;SDS011;38637;49.984;20.426;2023-03-23T00:27:30;30.92;;;10.85;;
52744;SDS011;38637;49.984;20.426;2023-03-23T00:29:55;16.20;;;7.77;;
52744;SDS011;38637;49.984;20.426;2023-03-23T00:32:22;13.20;;;7.35;;
52744;SDS011;38637;49.984;20.426;2023-03-23T00:34:55;18.70;;;9.05;;
52744;SDS011;38637;49.984;20.426;2023-03-23T00:37:23;8.75;;;5.85;;
52744;SDS011;38637;49.984;20.426;2023-03-23T00:39:49;8.43;;;5.32;;
52744;SDS011;38637;49.984;20.426;2023-03-23T00:42:16;12.35;;;6.05;;
52744;SDS011;38637;49.984;20.426;2023-03-23T00:44:42;10.20;;;5.85;;
52744;SDS011;38637;49.984;20.426;2023-03-23T00:47:08;6.25;;;5.10;;
52744;SDS011;38637;49.984;20.426;2023-03-23T00:49:35;4.95;;;4.45;;
52744;SDS011;38637;49.984;20.426;2023-03-23T00:52:01;8.82;;;5.32;;
52744;SDS011;38637;49.984;20.426;2023-03-23T00:54:28;7.72;;;5.07;;
52744;SDS011;38637;49.984;20.426;2023-03-23T00:56:54;6.30;;;4.83;;
52744;SDS011;38637;49.984;20.426;2023-03-23T00:59:19;6.93;;;5.53;;
52744;SDS011;38637;49.984;20.426;2023-03-23T01:01:46;7.43;;;4.78;;
52744;SDS011;38637;49.984;20.426;2023-03-23T01:04:11;11.90;;;5.95;;
52744;SDS011;38637;49.984;20.426;2023-03-23T01:06:38;16.83;;;8.53;;
52744;SDS011;38637;49.984;20.426;2023-03-23T01:09:12;21.90;;;9.75;;
52744;SDS011;38637;49.984;20.426;2023-03-23T01:11:45;23.27;;;9.63;;
52744;SDS011;38637;49.984;20.426;2023-03-23T01:14:11;40.03;;;13.75;;
52744;SDS011;38637;49.984;20.426;2023-03-23T01:19:03;7.13;;;4.97;;
52744;SDS011;38637;49.984;20.426;2023-03-23T01:21:29;6.23;;;4.80;;
52744;SDS011;38637;49.984;20.426;2023-03-23T01:23:54;9.57;;;5.50;;
52744;SDS011;38637;49.984;20.426;2023-03-23T01:26:21;8.13;;;4.97;;
52744;SDS011;38637;49.984;20.426;2023-03-23T01:28:48;10.10;;;5.07;;
52744;SDS011;38637;49.984;20.426;2023-03-23T01:31:15;10.75;;;6.25;;
52744;SDS011;38637;49.984;20.426;2023-03-23T01:33:43;23.05;;;10.75;;
52744;SDS011;38637;49.984;20.426;2023-03-23T01:36:13;29.67;;;10.73;;
52744;SDS011;38637;49.984;20.426;2023-03-23T01:38:44;32.00;;;12.63;;
52744;SDS011;38637;49.984;20.426;2023-03-23T01:41:11;9.90;;;5.43;;
52744;SDS011;38637;49.984;20.426;2023-03-23T01:46:19;5.30;;;4.80;;
52744;SDS011;38637;49.984;20.426;2023-03-23T01:48:47;7.53;;;5.53;;
52744;SDS011;38637;49.984;20.426;2023-03-23T01:51:15;9.32;;;6.35;;
52744;SDS011;38637;49.984;20.426;2023-03-23T01:53:45;19.35;;;8.82;;
52744;SDS011;38637;49.984;20.426;2023-03-23T01:56:14;13.93;;;7.55;;
52744;SDS011;38637;49.984;20.426;2023-03-23T01:58:45;14.80;;;7.68;;
52744;SDS011;38637;49.984;20.426;2023-03-23T02:01:11;18.03;;;8.40;;
52744;SDS011;38637;49.984;20.426;2023-03-23T02:03:40;8.73;;;6.03;;
52744;SDS011;38637;49.984;20.426;2023-03-23T02:06:08;13.27;;;7.20;;
52744;SDS011;38637;49.984;20.426;2023-03-23T02:08:33;11.17;;;6.07;;
52744;SDS011;38637;49.984;20.426;2023-03-23T02:13:26;9.48;;;5.75;;
52744;SDS011;38637;49.984;20.426;2023-03-23T02:21:09;8.02;;;4.85;;
52744;SDS011;38637;49.984;20.426;2023-03-23T02:26:38;9.07;;;4.28;;
52744;SDS011;38637;49.984;20.426;2023-03-23T02:29:07;5.70;;;4.15;;
52744;SDS011;38637;49.984;20.426;2023-03-23T02:31:56;5.28;;;3.67;;
52744;SDS011;38637;49.984;20.426;2023-03-23T02:34:51;7.57;;;4.65;;
52744;SDS011;38637;49.984;20.426;2023-03-23T02:37:24;6.50;;;4.00;;
52744;SDS011;38637;49.984;20.426;2023-03-23T02:39:56;6.63;;;4.00;;
52744;SDS011;38637;49.984;20.426;2023-03-23T02:42:31;8.02;;;4.28;;
52744;SDS011;38637;49.984;20.426;2023-03-23T02:45:02;4.07;;;3.67;;
52744;SDS011;38637;49.984;20.426;2023-03-23T02:47:30;7.70;;;3.67;;
52744;SDS011;38637;49.984;20.426;2023-03-23T02:49:58;5.55;;;3.75;;
52744;SDS011;38637;49.984;20.426;2023-03-23T02:52:28;6.18;;;4.25;;
52744;SDS011;38637;49.984;20.426;2023-03-23T02:54:56;5.47;;;4.18;;
52744;SDS011;38637;49.984;20.426;2023-03-23T02:57:24;7.18;;;4.18;;
52744;SDS011;38637;49.984;20.426;2023-03-23T03:02:26;5.53;;;3.83;;
52744;SDS011;38637;49.984;20.426;2023-03-23T03:07:57;7.18;;;4.00;;
52744;SDS011;38637;49.984;20.426;2023-03-23T03:10:32;5.47;;;4.20;;
52744;SDS011;38637;49.984;20.426;2023-03-23T03:15:45;5.72;;;4.65;;
52744;SDS011;38637;49.984;20.426;2023-03-23T03:18:19;4.70;;;4.10;;
52744;SDS011;38637;49.984;20.426;2023-03-23T03:20:50;7.32;;;4.30;;
52744;SDS011;38637;49.984;20.426;2023-03-23T03:23:20;5.55;;;4.13;;
52744;SDS011;38637;49.984;20.426;2023-03-23T03:25:47;11.00;;;4.57;;
52744;SDS011;38637;49.984;20.426;2023-03-23T03:28:15;5.20;;;4.22;;
52744;SDS011;38637;49.984;20.426;2023-03-23T03:30:46;6.57;;;4.57;;
52744;SDS011;38637;49.984;20.426;2023-03-23T03:33:14;6.60;;;4.75;;
52744;SDS011;38637;49.984;20.426;2023-03-23T03:35:40;9.17;;;4.83;;
52744;SDS011;38637;49.984;20.426;2023-03-23T03:38:08;5.18;;;4.22;;
52744;SDS011;38637;49.984;20.426;2023-03-23T03:40:35;5.15;;;3.88;;
52744;SDS011;38637;49.984;20.426;2023-03-23T03:43:00;6.53;;;4.57;;
52744;SDS011;38637;49.984;20.426;2023-03-23T03:45:26;7.03;;;4.13;;
52744;SDS011;38637;49.984;20.426;2023-03-23T03:47:52;5.10;;;4.10;;
52744;SDS011;38637;49.984;20.426;2023-03-23T03:50:17;6.30;;;4.63;;
52744;SDS011;38637;49.984;20.426;2023-03-23T03:52:42;7.67;;;4.10;;
52744;SDS011;38637;49.984;20.426;2023-03-23T03:55:09;5.10;;;4.60;;
52744;SDS011;38637;49.984;20.426;2023-03-23T03:57:35;5.70;;;4.57;;
52744;SDS011;38637;49.984;20.426;2023-03-23T04:00:02;5.90;;;4.15;;
52744;SDS011;38637;49.984;20.426;2023-03-23T04:02:39;4.43;;;3.83;;
52744;SDS011;38637;49.984;20.426;2023-03-23T04:05:08;8.52;;;3.55;;
52744;SDS011;38637;49.984;20.426;2023-03-23T04:07:35;6.03;;;4.43;;
52744;SDS011;38637;49.984;20.426;2023-03-23T04:10:03;5.88;;;3.70;;
52744;SDS011;38637;49.984;20.426;2023-03-23T04:12:30;4.55;;;3.53;;
52744;SDS011;38637;49.984;20.426;2023-03-23T04:14:56;6.65;;;4.85;;
52744;SDS011;38637;49.984;20.426;2023-03-23T04:17:22;8.15;;;6.05;;
52744;SDS011;38637;49.984;20.426;2023-03-23T04:19:47;9.67;;;6.10;;
52744;SDS011;38637;49.984;20.426;2023-03-23T04:22:13;6.10;;;5.50;;
52744;SDS011;38637;49.984;20.426;2023-03-23T04:24:38;8.93;;;5.27;;
52744;SDS011;38637;49.984;20.426;2023-03-23T04:27:03;9.97;;;6.60;;
52744;SDS011;38637;49.984;20.426;2023-03-23T04:29:30;6.50;;;5.45;;
52744;SDS011;38637;49.984;20.426;2023-03-23T04:31:55;8.60;;;6.17;;
52744;SDS011;38637;49.984;20.426;2023-03-23T04:34:21;5.93;;;5.00;;
52744;SDS011;38637;49.984;20.426;2023-03-23T04:36:47;6.82;;;4.28;;
52744;SDS011;38637;49.984;20.426;2023-03-23T04:39:12;5.40;;;4.53;;
52744;SDS011;38637;49.984;20.426;2023-03-23T04:41:38;7.30;;;5.43;;
52744;SDS011;38637;49.984;20.426;2023-03-23T04:44:05;5.75;;;4.70;;
52744;SDS011;38637;49.984;20.426;2023-03-23T04:46:31;8.32;;;4.53;;
52744;SDS011;38637;49.984;20.426;2023-03-23T04:48:57;11.45;;;4.82;;
52744;SDS011;38637;49.984;20.426;2023-03-23T04:51:24;8.85;;;4.93;;
52744;SDS011;38637;49.984;20.426;2023-03-23T04:53:51;10.20;;;6.32;;
52744;SDS011;38637;49.984;20.426;2023-03-23T04:56:17;7.70;;;4.80;;
52744;SDS011;38637;49.984;20.426;2023-03-23T04:58:43;10.83;;;5.20;;
52744;SDS011;38637;49.984;20.426;2023-03-23T05:01:09;13.75;;;6.80;;
52744;SDS011;38637;49.984;20.426;2023-03-23T05:03:38;16.63;;;7.13;;
52744;SDS011;38637;49.984;20.426;2023-03-23T05:06:04;20.30;;;8.03;;
52744;SDS011;38637;49.984;20.426;2023-03-23T05:08:30;20.50;;;9.53;;
52744;SDS011;38637;49.984;20.426;2023-03-23T05:10:57;11.32;;;6.88;;
52744;SDS011;38637;49.984;20.426;2023-03-23T05:13:24;26.50;;;10.45;;
52744;SDS011;38637;49.984;20.426;2023-03-23T05:15:50;22.90;;;9.93;;
52744;SDS011;38637;49.984;20.426;2023-03-23T05:18:15;20.73;;;9.00;;
52744;SDS011;38637;49.984;20.426;2023-03-23T05:20:41;7.57;;;5.60;;
52744;SDS011;38637;49.984;20.426;2023-03-23T05:23:07;12.13;;;4.90;;
52744;SDS011;38637;49.984;20.426;2023-03-23T05:25:33;4.25;;;3.88;;
52744;SDS011;38637;49.984;20.426;2023-03-23T05:28:01;3.33;;;3.03;;
52744;SDS011;38637;49.984;20.426;2023-03-23T05:30:27;3.88;;;3.45;;
52744;SDS011;38637;49.984;20.426;2023-03-23T05:32:53;4.63;;;3.00;;
52744;SDS011;38637;49.984;20.426;2023-03-23T05:35:18;6.07;;;3.93;;
52744;SDS011;38637;49.984;20.426;2023-03-23T05:37:45;7.72;;;4.82;;
52744;SDS011;38637;49.984;20.426;2023-03-23T05:40:11;8.40;;;3.40;;
52744;SDS011;38637;49.984;20.426;2023-03-23T05:42:37;4.20;;;3.78;;
52744;SDS011;38637;49.984;20.426;2023-03-23T05:45:06;6.20;;;3.50;;
52744;SDS011;38637;49.984;20.426;2023-03-23T05:47:33;7.45;;;4.40;;
52744;SDS011;38637;49.984;20.426;2023-03-23T05:49:59;7.73;;;4.10;;
52744;SDS011;38637;49.984;20.426;2023-03-23T05:52:25;7.75;;;5.57;;
52744;SDS011;38637;49.984;20.426;2023-03-23T05:54:52;6.93;;;4.07;;
52744;SDS011;38637;49.984;20.426;2023-03-23T05:57:18;5.43;;;3.97;;
52744;SDS011;38637;49.984;20.426;2023-03-23T05:59:46;5.10;;;4.13;;
52744;SDS011;38637;49.984;20.426;2023-03-23T06:02:12;8.45;;;4.85;;
52744;SDS011;38637;49.984;20.426;2023-03-23T06:04:39;7.72;;;4.90;;
52744;SDS011;38637;49.984;20.426;2023-03-23T06:07:05;12.40;;;4.32;;
52744;SDS011;38637;49.984;20.426;2023-03-23T06:09:31;5.15;;;4.18;;
52744;SDS011;38637;49.984;20.426;2023-03-23T06:11:57;4.60;;;3.53;;
52744;SDS011;38637;49.984;20.426;2023-03-23T06:14:22;7.27;;;3.60;;
52744;SDS011;38637;49.984;20.426;2023-03-23T06:16:48;6.13;;;3.83;;
52744;SDS011;38637;49.984;20.426;2023-03-23T06:19:13;7.23;;;4.10;;
52744;SDS011;38637;49.984;20.426;2023-03-23T06:21:40;4.70;;;4.25;;
52744;SDS011;38637;49.984;20.426;2023-03-23T06:24:06;4.78;;;2.67;;
52744;SDS011;38637;49.984;20.426;2023-03-23T06:26:32;5.90;;;3.47;;
52744;SDS011;38637;49.984;20.426;2023-03-23T06:29:00;4.80;;;3.22;;
52744;SDS011;38637;49.984;20.426;2023-03-23T06:31:26;9.10;;;4.67;;
52744;SDS011;38637;49.984;20.426;2023-03-23T06:33:52;9.95;;;3.90;;
52744;SDS011;38637;49.984;20.426;2023-03-23T06:36:17;4.47;;;3.43;;
52744;SDS011;38637;49.984;20.426;2023-03-23T06:38:43;5.80;;;3.45;;
52744;SDS011;38637;49.984;20.426;2023-03-23T06:41:09;4.72;;;3.72;;
52744;SDS011;38637;49.984;20.426;2023-03-23T06:43:35;6.10;;;3.70;;
52744;SDS011;38637;49.984;20.426;2023-03-23T06:46:02;4.70;;;3.20;;
52744;SDS011;38637;49.984;20.426;2023-03-23T06:48:28;8.30;;;4.00;;
52744;SDS011;38637;49.984;20.426;2023-03-23T06:50:53;5.97;;;3.80;;
52744;SDS011;38637;49.984;20.426;2023-03-23T06:53:19;5.23;;;3.43;;
52744;SDS011;38637;49.984;20.426;2023-03-23T06:55:45;8.95;;;3.83;;
52744;SDS011;38637;49.984;20.426;2023-03-23T06:58:11;6.72;;;3.65;;
52744;SDS011;38637;49.984;20.426;2023-03-23T07:00:37;5.17;;;3.33;;
52744;SDS011;38637;49.984;20.426;2023-03-23T07:03:03;7.55;;;4.22;;
52744;SDS011;38637;49.984;20.426;2023-03-23T07:05:28;7.43;;;4.67;;
52744;SDS011;38637;49.984;20.426;2023-03-23T07:07:55;4.97;;;4.53;;
52744;SDS011;38637;49.984;20.426;2023-03-23T07:10:20;3.63;;;2.83;;
52744;SDS011;38637;49.984;20.426;2023-03-23T07:12:45;4.97;;;3.03;;
52744;SDS011;38637;49.984;20.426;2023-03-23T07:15:11;6.77;;;3.40;;
52744;SDS011;38637;49.984;20.426;2023-03-23T07:17:37;5.70;;;2.70;;
52744;SDS011;38637;49.984;20.426;2023-03-23T07:20:03;3.83;;;2.90;;
52744;SDS011;38637;49.984;20.426;2023-03-23T07:22:30;4.57;;;4.03;;
52744;SDS011;38637;49.984;20.426;2023-03-23T07:24:55;5.00;;;3.07;;
52744;SDS011;38637;49.984;20.426;2023-03-23T07:27:21;4.00;;;2.27;;
52744;SDS011;38637;49.984;20.426;2023-03-23T07:29:46;3.83;;;2.33;;
52744;SDS011;38637;49.984;20.426;2023-03-23T07:32:12;8.03;;;3.90;;
52744;SDS011;38637;49.984;20.426;2023-03-23T07:34:37;6.33;;;3.10;;
52744;SDS011;38637;49.984;20.426;2023-03-23T07:37:03;4.57;;;2.65;;
52744;SDS011;38637;49.984;20.426;2023-03-23T07:39:28;3.27;;;2.63;;
52744;SDS011;38637;49.984;20.426;2023-03-23T07:41:54;4.30;;;2.47;;
52744;SDS011;38637;49.984;20.426;2023-03-23T07:44:20;5.97;;;2.88;;
52744;SDS011;38637;49.984;20.426;2023-03-23T07:46:45;2.73;;;2.50;;
52744;SDS011;38637;49.984;20.426;2023-03-23T07:49:11;9.75;;;3.78;;
52744;SDS011;38637;49.984;20.426;2023-03-23T07:51:37;5.63;;;3.10;;
52744;SDS011;38637;49.984;20.426;2023-03-23T07:54:03;4.13;;;2.90;;
52744;SDS011;38637;49.984;20.426;2023-03-23T07:56:30;10.25;;;3.45;;
52744;SDS011;38637;49.984;20.426;2023-03-23T07:58:55;3.47;;;2.70;;
52744;SDS011;38637;49.984;20.426;2023-03-23T08:01:21;3.90;;;2.63;;
52744;SDS011;38637;49.984;20.426;2023-03-23T08:03:48;3.75;;;2.47;;
52744;SDS011;38637;49.984;20.426;2023-03-23T08:06:13;4.03;;;2.70;;
52744;SDS011;38637;49.984;20.426;2023-03-23T08:08:39;5.55;;;2.17;;
52744;SDS011;38637;49.984;20.426;2023-03-23T08:11:05;7.13;;;3.10;;
52744;SDS011;38637;49.984;20.426;2023-03-23T08:13:31;4.47;;;2.60;;
52744;SDS011;38637;49.984;20.426;2023-03-23T08:15:58;3.45;;;2.90;;
52744;SDS011;38637;49.984;20.426;2023-03-23T08:18:23;3.10;;;2.57;;
52744;SDS011;38637;49.984;20.426;2023-03-23T08:20:50;3.25;;;2.47;;
52744;SDS011;38637;49.984;20.426;2023-03-23T08:23:15;3.13;;;2.40;;
52744;SDS011;38637;49.984;20.426;2023-03-23T08:25:41;9.30;;;2.97;;
52744;SDS011;38637;49.984;20.426;2023-03-23T08:28:08;3.95;;;2.53;;
52744;SDS011;38637;49.984;20.426;2023-03-23T08:30:34;7.28;;;2.50;;
52744;SDS011;38637;49.984;20.426;2023-03-23T08:33:01;3.40;;;2.75;;
52744;SDS011;38637;49.984;20.426;2023-03-23T08:35:27;2.53;;;2.15;;
52744;SDS011;38637;49.984;20.426;2023-03-23T08:37:53;9.45;;;2.40;;
52744;SDS011;38637;49.984;20.426;2023-03-23T08:40:20;4.78;;;2.17;;
52744;SDS011;38637;49.984;20.426;2023-03-23T08:42:47;3.22;;;2.33;;
52744;SDS011;38637;49.984;20.426;2023-03-23T08:47:41;2.95;;;2.10;;
52744;SDS011;38637;49.984;20.426;2023-03-23T08:50:08;3.55;;;2.58;;
52744;SDS011;38637;49.984;20.426;2023-03-23T08:52:36;5.00;;;3.15;;
52744;SDS011;38637;49.984;20.426;2023-03-23T08:55:02;4.05;;;2.33;;
52744;SDS011;38637;49.984;20.426;2023-03-23T08:57:28;7.03;;;2.40;;
52744;SDS011;38637;49.984;20.426;2023-03-23T08:59:54;7.00;;;2.97;;
52744;SDS011;38637;49.984;20.426;2023-03-23T09:02:25;3.65;;;2.47;;
52744;SDS011;38637;49.984;20.426;2023-03-23T09:04:51;4.72;;;2.90;;
52744;SDS011;38637;49.984;20.426;2023-03-23T09:07:17;4.47;;;2.55;;
52744;SDS011;38637;49.984;20.426;2023-03-23T09:09:43;3.40;;;2.30;;
52744;SDS011;38637;49.984;20.426;2023-03-23T09:12:09;3.67;;;1.90;;
52744;SDS011;38637;49.984;20.426;2023-03-23T09:14:35;3.67;;;2.08;;
52744;SDS011;38637;49.984;20.426;2023-03-23T09:17:02;4.00;;;2.20;;
52744;SDS011;38637;49.984;20.426;2023-03-23T09:19:28;4.20;;;2.07;;
52744;SDS011;38637;49.984;20.426;2023-03-23T09:21:54;5.75;;;2.22;;
52744;SDS011;38637;49.984;20.426;2023-03-23T09:24:20;8.17;;;2.47;;
52744;SDS011;38637;49.984;20.426;2023-03-23T09:26:45;6.15;;;2.42;;
52744;SDS011;38637;49.984;20.426;2023-03-23T09:29:11;3.53;;;2.00;;
52744;SDS011;38637;49.984;20.426;2023-03-23T09:31:37;3.75;;;1.85;;
52744;SDS011;38637;49.984;20.426;2023-03-23T09:34:05;3.78;;;1.90;;
52744;SDS011;38637;49.984;20.426;2023-03-23T09:36:31;6.88;;;2.28;;
52744;SDS011;38637;49.984;20.426;2023-03-23T09:38:57;5.05;;;2.20;;
52744;SDS011;38637;49.984;20.426;2023-03-23T09:44:17;2.75;;;1.70;;
52744;SDS011;38637;49.984;20.426;2023-03-23T09:46:48;3.28;;;2.13;;
52744;SDS011;38637;49.984;20.426;2023-03-23T09:49:30;4.07;;;1.80;;
52744;SDS011;38637;49.984;20.426;2023-03-23T09:52:01;4.10;;;1.73;;
52744;SDS011;38637;49.984;20.426;2023-03-23T09:57:01;3.13;;;2.17;;
52744;SDS011;38637;49.984;20.426;2023-03-23T09:59:36;4.85;;;1.88;;
52744;SDS011;38637;49.984;20.426;2023-03-23T10:02:11;3.28;;;2.72;;
52744;SDS011;38637;49.984;20.426;2023-03-23T10:04:46;1.90;;;1.80;;
52744;SDS011;38637;49.984;20.426;2023-03-23T10:07:17;3.05;;;1.95;;
52744;SDS011;38637;49.984;20.426;2023-03-23T10:09:45;2.72;;;1.85;;
52744;SDS011;38637;49.984;20.426;2023-03-23T10:17:46;4.82;;;2.88;;
52744;SDS011;38637;49.984;20.426;2023-03-23T10:26:04;2.63;;;2.30;;
52744;SDS011;38637;49.984;20.426;2023-03-23T10:31:11;3.35;;;1.90;;
52744;SDS011;38637;49.984;20.426;2023-03-23T10:33:42;4.00;;;2.03;;
52744;SDS011;38637;49.984;20.426;2023-03-23T10:36:12;4.05;;;1.92;;
52744;SDS011;38637;49.984;20.426;2023-03-23T10:38:51;2.20;;;1.67;;
52744;SDS011;38637;49.984;20.426;2023-03-23T10:41:23;5.07;;;3.42;;
52744;SDS011;38637;49.984;20.426;2023-03-23T10:43:48;2.27;;;1.70;;
52744;SDS011;38637;49.984;20.426;2023-03-23T10:49:21;2.25;;;1.85;;
52744;SDS011;38637;49.984;20.426;2023-03-23T10:52:04;3.47;;;2.28;;
52744;SDS011;38637;49.984;20.426;2023-03-23T10:54:39;2.58;;;1.90;;
52744;SDS011;38637;49.984;20.426;2023-03-23T10:57:45;3.67;;;2.13;;
52744;SDS011;38637;49.984;20.426;2023-03-23T11:02:40;2.53;;;1.35;;
52744;SDS011;38637;49.984;20.426;2023-03-23T11:05:16;5.20;;;1.77;;
52744;SDS011;38637;49.984;20.426;2023-03-23T11:07:52;1.92;;;1.52;;
52744;SDS011;38637;49.984;20.426;2023-03-23T11:10:21;5.28;;;1.58;;
52744;SDS011;38637;49.984;20.426;2023-03-23T11:12:51;2.88;;;1.77;;
52744;SDS011;38637;49.984;20.426;2023-03-23T11:15:34;2.28;;;1.63;;
52744;SDS011;38637;49.984;20.426;2023-03-23T11:18:05;2.90;;;2.03;;
52744;SDS011;38637;49.984;20.426;2023-03-23T11:20:42;3.25;;;1.65;;
52744;SDS011;38637;49.984;20.426;2023-03-23T11:23:19;7.47;;;2.42;;
52744;SDS011;38637;49.984;20.426;2023-03-23T11:25:51;6.50;;;1.88;;
52744;SDS011;38637;49.984;20.426;2023-03-23T11:28:20;5.47;;;1.88;;
52744;SDS011;38637;49.984;20.426;2023-03-23T11:30:45;16.10;;;3.87;;
52744;SDS011;38637;49.984;20.426;2023-03-23T11:33:11;3.77;;;2.63;;
52744;SDS011;38637;49.984;20.426;2023-03-23T11:35:42;2.88;;;1.95;;
52744;SDS011;38637;49.984;20.426;2023-03-23T11:38:15;3.70;;;1.60;;
52744;SDS011;38637;49.984;20.426;2023-03-23T11:40:44;1.33;;;1.23;;
52744;SDS011;38637;49.984;20.426;2023-03-23T11:43:14;2.88;;;1.77;;
52744;SDS011;38637;49.984;20.426;2023-03-23T11:45:48;3.42;;;2.00;;
52744;SDS011;38637;49.984;20.426;2023-03-23T11:48:41;2.35;;;1.90;;
52744;SDS011;38637;49.984;20.426;2023-03-23T11:51:17;9.55;;;2.03;;
52744;SDS011;38637;49.984;20.426;2023-03-23T11:56:39;1.98;;;1.77;;
52744;SDS011;38637;49.984;20.426;2023-03-23T11:59:10;5.45;;;2.35;;
52744;SDS011;38637;49.984;20.426;2023-03-23T12:01:46;1.92;;;1.63;;
52744;SDS011;38637;49.984;20.426;2023-03-23T12:09:36;2.25;;;1.60;;
52744;SDS011;38637;49.984;20.426;2023-03-23T12:12:16;2.97;;;2.03;;
52744;SDS011;38637;49.984;20.426;2023-03-23T12:15:19;4.95;;;2.22;;
52744;SDS011;38637;49.984;20.426;2023-03-23T12:21:39;1.63;;;1.52;;
52744;SDS011;38637;49.984;20.426;2023-03-23T12:26:15;4.80;;;1.60;;
52744;SDS011;38637;49.984;20.426;2023-03-23T12:34:17;5.68;;;2.45;;
52744;SDS011;38637;49.984;20.426;2023-03-23T12:36:50;4.22;;;1.50;;
52744;SDS011;38637;49.984;20.426;2023-03-23T12:39:35;3.30;;;1.10;;
52744;SDS011;38637;49.984;20.426;2023-03-23T12:42:16;9.23;;;1.05;;
52744;SDS011;38637;49.984;20.426;2023-03-23T12:44:47;5.82;;;1.00;;
52744;SDS011;38637;49.984;20.426;2023-03-23T12:58:28;4.93;;;1.17;;
52744;SDS011;38637;49.984;20.426;2023-03-23T13:03:43;3.65;;;1.13;;
52744;SDS011;38637;49.984;20.426;2023-03-23T13:06:16;2.50;;;1.15;;
52744;SDS011;38637;49.984;20.426;2023-03-23T13:09:05;3.42;;;1.00;;
52744;SDS011;38637;49.984;20.426;2023-03-23T13:11:37;1.90;;;1.23;;
52744;SDS011;38637;49.984;20.426;2023-03-23T13:14:29;1.63;;;0.95;;
52744;SDS011;38637;49.984;20.426;2023-03-23T13:28:19;5.78;;;1.35;;
52744;SDS011;38637;49.984;20.426;2023-03-23T13:30:54;3.75;;;1.48;;
52744;SDS011;38637;49.984;20.426;2023-03-23T13:33:20;1.42;;;1.15;;
52744;SDS011;38637;49.984;20.426;2023-03-23T13:35:46;1.67;;;1.30;;
52744;SDS011;38637;49.984;20.426;2023-03-23T13:38:19;4.20;;;2.25;;
52744;SDS011;38637;49.984;20.426;2023-03-23T13:40:49;5.25;;;1.27;;
52744;SDS011;38637;49.984;20.426;2023-03-23T13:43:24;4.88;;;1.30;;
52744;SDS011;38637;49.984;20.426;2023-03-23T13:45:51;3.80;;;1.50;;
52744;SDS011;38637;49.984;20.426;2023-03-23T13:48:21;1.92;;;1.30;;
52744;SDS011;38637;49.984;20.426;2023-03-23T13:50:56;3.25;;;1.40;;
52744;SDS011;38637;49.984;20.426;2023-03-23T13:53:28;1.67;;;1.30;;
52744;SDS011;38637;49.984;20.426;2023-03-23T13:56:15;3.78;;;1.63;;
52744;SDS011;38637;49.984;20.426;2023-03-23T13:58:51;4.75;;;1.98;;
52744;SDS011;38637;49.984;20.426;2023-03-23T14:01:38;2.45;;;1.77;;
52744;SDS011;38637;49.984;20.426;2023-03-23T14:06:35;5.43;;;1.70;;
52744;SDS011;38637;49.984;20.426;2023-03-23T14:11:48;3.50;;;1.83;;
52744;SDS011;38637;49.984;20.426;2023-03-23T14:14:27;3.95;;;2.17;;
52744;SDS011;38637;49.984;20.426;2023-03-23T14:17:42;3.85;;;2.08;;
52744;SDS011;38637;49.984;20.426;2023-03-23T14:19:46;3.25;;;1.70;;
52744;SDS011;38637;49.984;20.426;2023-03-23T14:22:25;3.78;;;1.80;;
52744;SDS011;38637;49.984;20.426;2023-03-23T14:24:58;4.80;;;2.03;;
52744;SDS011;38637;49.984;20.426;2023-03-23T14:27:26;3.60;;;1.80;;
52744;SDS011;38637;49.984;20.426;2023-03-23T14:29:58;3.67;;;1.73;;
52744;SDS011;38637;49.984;20.426;2023-03-23T14:32:25;1.63;;;1.50;;
52744;SDS011;38637;49.984;20.426;2023-03-23T14:34:53;6.70;;;2.42;;
52744;SDS011;38637;49.984;20.426;2023-03-23T14:37:20;6.50;;;4.70;;
52744;SDS011;38637;49.984;20.426;2023-03-23T14:39:47;20.33;;;11.88;;
52744;SDS011;38637;49.984;20.426;2023-03-23T14:42:15;30.35;;;19.80;;
52744;SDS011;38637;49.984;20.426;2023-03-23T14:44:45;38.58;;;18.80;;
52744;SDS011;38637;49.984;20.426;2023-03-23T14:47:20;27.92;;;17.95;;
52744;SDS011;38637;49.984;20.426;2023-03-23T14:49:52;14.48;;;10.07;;
52744;SDS011;38637;49.984;20.426;2023-03-23T14:52:21;9.05;;;6.18;;
52744;SDS011;38637;49.984;20.426;2023-03-23T14:54:47;6.03;;;2.35;;
52744;SDS011;38637;49.984;20.426;2023-03-23T14:57:17;4.27;;;1.80;;
52744;SDS011;38637;49.984;20.426;2023-03-23T14:59:48;5.90;;;1.90;;
52744;SDS011;38637;49.984;20.426;2023-03-23T15:02:15;3.90;;;2.37;;
52744;SDS011;38637;49.984;20.426;2023-03-23T15:07:38;9.02;;;3.38;;
52744;SDS011;38637;49.984;20.426;2023-03-23T15:10:06;7.60;;;2.72;;
52744;SDS011;38637;49.984;20.426;2023-03-23T15:12:33;4.85;;;4.18;;
52744;SDS011;38637;49.984;20.426;2023-03-23T15:15:01;10.32;;;5.82;;
52744;SDS011;38637;49.984;20.426;2023-03-23T15:17:30;8.40;;;4.25;;
52744;SDS011;38637;49.984;20.426;2023-03-23T15:20:06;5.65;;;3.40;;
52744;SDS011;38637;49.984;20.426;2023-03-23T15:22:33;7.20;;;3.90;;
52744;SDS011;38637;49.984;20.426;2023-03-23T15:25:02;5.57;;;4.30;;
52744;SDS011;38637;49.984;20.426;2023-03-23T15:27:34;5.60;;;3.42;;
52744;SDS011;38637;49.984;20.426;2023-03-23T15:30:18;5.00;;;2.70;;
52744;SDS011;38637;49.984;20.426;2023-03-23T15:32:54;4.50;;;2.83;;
52744;SDS011;38637;49.984;20.426;2023-03-23T15:35:25;3.60;;;3.08;;
52744;SDS011;38637;49.984;20.426;2023-03-23T15:37:58;5.05;;;2.90;;
52744;SDS011;38637;49.984;20.426;2023-03-23T15:40:26;7.88;;;3.20;;
52744;SDS011;38637;49.984;20.426;2023-03-23T15:48:47;7.88;;;5.03;;
52744;SDS011;38637;49.984;20.426;2023-03-23T15:51:15;8.88;;;6.05;;
52744;SDS011;38637;49.984;20.426;2023-03-23T15:53:42;11.02;;;7.65;;
52744;SDS011;38637;49.984;20.426;2023-03-23T15:56:08;11.82;;;6.90;;
52744;SDS011;38637;49.984;20.426;2023-03-23T15:58:35;16.02;;;7.70;;
52744;SDS011;38637;49.984;20.426;2023-03-23T16:01:03;16.10;;;8.00;;
52744;SDS011;38637;49.984;20.426;2023-03-23T16:03:34;10.68;;;6.45;;
52744;SDS011;38637;49.984;20.426;2023-03-23T16:06:03;10.88;;;5.22;;
52744;SDS011;38637;49.984;20.426;2023-03-23T16:08:29;11.32;;;5.15;;
52744;SDS011;38637;49.984;20.426;2023-03-23T16:10:55;11.37;;;4.50;;
52744;SDS011;38637;49.984;20.426;2023-03-23T16:13:20;6.40;;;3.83;;
52744;SDS011;38637;49.984;20.426;2023-03-23T16:15:46;16.70;;;10.95;;
52744;SDS011;38637;49.984;20.426;2023-03-23T16:18:15;16.58;;;12.75;;
52744;SDS011;38637;49.984;20.426;2023-03-23T16:20:43;19.27;;;13.38;;
52744;SDS011;38637;49.984;20.426;2023-03-23T16:23:08;20.37;;;11.47;;
52744;SDS011;38637;49.984;20.426;2023-03-23T16:25:33;17.07;;;11.77;;
52744;SDS011;38637;49.984;20.426;2023-03-23T16:27:59;15.97;;;10.37;;
52744;SDS011;38637;49.984;20.426;2023-03-23T16:30:25;12.88;;;9.05;;